ADDS METAR Data INFO
IDs: Format: Raw Decoded Include TAF

Data at: 2206 UTC 24 Feb 2018

KSPR 242155Z AUTO 18020KT 5SM HZ CLR 25/22 A2997 RMK A01
KSPR 242135Z AUTO 18019KT 5SM HZ CLR 25/22 A2997 RMK A01
KSPR 242115Z AUTO 18020KT 6SM HZ CLR 24/22 A2997 RMK A01
KSPR 242055Z AUTO 18020KT 5SM HZ CLR 25/22 A2998 RMK A01
KSPR 242035Z AUTO 18019KT 5SM HZ CLR 25/22 A2999 RMK A01
KSPR 242015Z AUTO 18021KT 6SM HZ CLR 25/21 A2999 RMK A01
KSPR 241955Z AUTO 18022KT 6SM HZ CLR 25/21 A2999 RMK A01
KSPR 241935Z AUTO 18021KT 6SM HZ CLR 25/21 A3000 RMK A01
KSPR 241915Z AUTO 17022KT 6SM HZ CLR 25/21 A3001 RMK A01
KSPR 241855Z AUTO 17021KT 5SM HZ CLR 25/22 A3002 RMK A01
KSPR 241835Z AUTO 18020KT 6SM HZ CLR 25/22 A3003 RMK A01
KSPR 241815Z AUTO 18021KT 6SM HZ CLR 25/22 A3004 RMK A01
KSPR 241755Z AUTO 18021KT 6SM HZ CLR 24/22 A3005 RMK A01
KSPR 241735Z AUTO 17021KT 6SM HZ CLR 24/22 A3006 RMK A01
KSPR 241715Z AUTO 17020KT 6SM HZ CLR 24/22 A3006 RMK A01
KSPR 241655Z AUTO 17020KT 6SM HZ CLR 24/22 A3007 RMK A01
KSPR 241635Z AUTO 17021KT 6SM HZ CLR 24/22 A3008 RMK A01
KSPR 241615Z AUTO 17020KT 6SM HZ CLR 24/22 A3008 RMK A01
KSPR 241555Z AUTO 17019KT 6SM HZ FEW025 24/22 A3009 RMK A01
KSPR 241535Z AUTO 17019KT 6SM HZ FEW025 24/22 A3009 RMK A01
KSPR 241515Z AUTO 17020KT 6SM BR CLR 24/22 A3009 RMK A01
KSPR 241455Z AUTO 17020KT 6SM BR CLR 24/22 A3008 RMK A01
KSPR 241435Z AUTO 17021KT 6SM BR CLR 24/22 A3008 RMK A01
KSPR 240835Z AUTO 17015KT 4SM BR FEW014 FEW036 FEW043 23/23 A3008 RMK A01
KSPR 240815Z AUTO 17017KT 4SM BR FEW014 FEW036 23/23 A3008 RMK A01
KSPR 240755Z AUTO 17015KT 3SM BR FEW014 FEW042 23/23 A3009 RMK A01
KSPR 240735Z AUTO 17013KT 4SM BR CLR 23/23 A3010 RMK A01
KSPR 240715Z AUTO 18014KT 4SM BR CLR 23/23 A3011 RMK A01
KSPR 240655Z AUTO 17014KT 4SM BR CLR 23/23 A3011 RMK A01
KSPR 240635Z AUTO 16016KT 4SM BR CLR 23/23 A3011 RMK A01
KSPR 240615Z AUTO 16016KT 4SM BR CLR 23/23 A3012 RMK A01
KSPR 240555Z AUTO 16016KT 4SM BR CLR 23/23 A3012 RMK A01
KSPR 240535Z AUTO 16016KT 4SM BR CLR 23/23 A3013 RMK A01
KSPR 240515Z AUTO 16016KT 4SM BR CLR 23/23 A3013 RMK A01
KSPR 240455Z AUTO 16016KT 4SM BR CLR 23/23 A3013 RMK A01
KSPR 240435Z AUTO 16016KT 4SM BR CLR 23/23 A3014 RMK A01
KSPR 240415Z AUTO 16015KT 4SM BR CLR 23/23 A3014 RMK A01
KSPR 240355Z AUTO 16015KT 4SM BR CLR 23/23 A3014 RMK A01
KSPR 240335Z AUTO 16013KT 4SM BR CLR 23/23 A3015 RMK A01
KSPR 240315Z AUTO 16011KT 4SM BR CLR 23/23 A3015 RMK A01
KSPR 240255Z AUTO 16011KT 4SM BR CLR 23/23 A3016 RMK A01
KSPR 240235Z AUTO 16010KT 4SM BR CLR 23/23 A3016 RMK A01
KSPR 240215Z AUTO 16012KT 4SM BR CLR 23/23 A3016 RMK A01
KSPR 240155Z AUTO 17011KT 5SM BR CLR 24/24 A3016 RMK A01
KSPR 240135Z AUTO 17010KT 5SM BR CLR 23/23 A3016 RMK A01
KSPR 240115Z AUTO 17009KT 5SM BR FEW016 FEW070 24/23 A3016 RMK A01
KSPR 240055Z AUTO 17010KT 5SM BR CLR 24/23 A3015 RMK A01
KSPR 240035Z AUTO 17011KT 5SM BR CLR 23/23 A3015 RMK A01
KSPR 240015Z AUTO 18011KT 5SM BR CLR 23/23 A3015 RMK A01
KSPR 232355Z AUTO 18010KT 5SM BR CLR 24/23 A3015 RMK A01
KSPR 232335Z AUTO 18011KT 5SM BR CLR 24/23 A3015 RMK A01
KSPR 232315Z AUTO 18010KT 6SM BR CLR 24/23 A3015 RMK A01
KSPR 232255Z AUTO 17011KT 6SM BR CLR 24/23 A3015 RMK A01
KSPR 232235Z AUTO 17011KT 6SM BR CLR 24/23 A3015 RMK A01
KSPR 232215Z AUTO 17011KT 6SM BR CLR 25/23 A3015 RMK A01
KSPR 232155Z AUTO 17011KT 25/23 A3015 RMK A01
KSPR 232135Z AUTO 17011KT 6SM BR CLR 25/23 A3015 RMK A01
KSPR 232115Z AUTO 17011KT 6SM BR CLR 24/23 A3016 RMK A01
KSPR 232055Z AUTO 17011KT 6SM BR CLR 24/23 A3016 RMK A01
KSPR 232035Z AUTO 18009KT 6SM BR CLR 25/23 A3017 RMK A01
KSPR 232015Z AUTO 19009KT 6SM BR CLR 25/23 A3017 RMK A01
KSPR 231955Z AUTO 18008KT 7SM CLR 25/22 A3017 RMK A01
KSPR 231935Z AUTO 18010KT 7SM CLR 25/22 A3018 RMK A01
KSPR 231915Z AUTO 17010KT 7SM CLR 25/22 A3019 RMK A01
KSPR 231855Z AUTO 17010KT 7SM CLR 25/22 A3020 RMK A01
KSPR 231835Z AUTO 17011KT 7SM CLR 25/22 A3021 RMK A01
KSPR 231815Z AUTO 17012KT 7SM CLR 25/22 A3021 RMK A01
KSPR 231755Z AUTO 16012KT 7SM CLR 25/22 A3022 RMK A01
KSPR 231735Z AUTO 16012KT 9SM CLR 26/22 A3023 RMK A01
KSPR 231715Z AUTO 15010KT 10SM CLR 26/22 A3024 RMK A01
KSPR 231655Z AUTO 16009KT 10SM CLR 26/22 A3025 RMK A01
KSPR 231635Z AUTO 16009KT 10SM CLR 26/22 A3025 RMK A01
KSPR 231615Z AUTO 16008KT 10SM CLR 25/22 A3025 RMK A01
KSPR 231555Z AUTO 16008KT 10SM CLR 25/22 A3025 RMK A01
KSPR 231535Z AUTO 15010KT 10SM FEW100 25/22 A3025 RMK A01
KSPR 231515Z AUTO 15012KT 10SM FEW100 25/21 A3024 RMK A01
KSPR 231455Z AUTO 15012KT 10SM BKN100 24/21 A3024 RMK A01
KSPR 231435Z AUTO 14013KT 10SM FEW055 OVC100 24/21 A3024 RMK A01
KSPR 231415Z AUTO 15011KT 10SM SCT055 SCT065 OVC100 24/21 A3024 RMK A01
KSPR 231355Z AUTO 15010KT 10SM FEW065 OVC100 24/21 A3023 RMK A01
KSPR 231335Z AUTO 16009KT 10SM OVC090 23/20 A3023 RMK A01
KSPR 231315Z AUTO 16009KT 10SM OVC080 23/21 A3022 RMK A01
KSPR 231255Z AUTO 16009KT 10SM FEW060 OVC070 23/21 A3022 RMK A01
KSPR 231235Z AUTO 16015KT 10SM FEW038 SCT050 BKN060 23/20 A3022 RMK A01
KSPR 231215Z AUTO 17013KT 10SM FEW015 SCT034 BKN042 22/21 A3022 RMK A01
KSPR 231155Z AUTO 14011KT 10SM SCT016 BKN035 OVC060 24/21 A3022 RMK A01
KSPR 231135Z AUTO VRB04KT 10SM FEW035 OVC044 24/22 A3022 RMK A01
KSPR 231115Z AUTO VRB05G13KT 10SM OVC043 24/21 A3022 RMK A01
KSPR 231055Z AUTO 13007G12KT 070V150 10SM FEW008 SCT037 BKN047 24/21 A3021 RMK A01
KSPR 231035Z AUTO 12007G16KT 030V150 10SM SCT008 BKN019 OVC031 24/21 A3021 RMK A01
KSPR 231015Z AUTO 13009KT 10SM BKN031 OVC050 23/21 A3022 RMK A01